createdAt,value
2019-03-28T00:00:43.783Z,8.40
2019-03-28T00:03:12.212Z,8.40
2019-03-28T00:05:40.661Z,8.40
2019-03-28T00:08:12.316Z,8.40
2019-03-28T00:10:39.284Z,8.40
2019-03-28T00:13:07.712Z,8.40
2019-03-28T00:15:36.236Z,8.40
2019-03-28T00:18:04.664Z,8.50
2019-03-28T00:20:33.119Z,8.50
2019-03-28T00:23:03.208Z,8.50
2019-03-28T00:25:31.646Z,8.50
2019-03-28T00:28:00.091Z,8.50
2019-03-28T00:30:28.548Z,8.50
2019-03-28T00:32:56.976Z,8.50
2019-03-28T00:35:26.199Z,8.40
2019-03-28T00:37:54.751Z,8.50
2019-03-28T00:40:23.209Z,8.40
2019-03-28T00:42:51.682Z,8.50
2019-03-28T00:45:20.195Z,8.40
2019-03-28T00:47:48.627Z,8.40
2019-03-28T00:50:17.250Z,8.40
2019-03-28T00:52:45.689Z,8.50
2019-03-28T00:55:14.134Z,8.50
2019-03-28T00:57:42.566Z,8.50
2019-03-28T01:00:12.371Z,8.50
2019-03-28T01:02:40.799Z,8.50
2019-03-28T01:05:09.331Z,8.50
2019-03-28T01:07:37.766Z,8.50
2019-03-28T01:10:06.762Z,8.50
2019-03-28T01:12:35.207Z,8.50
2019-03-28T01:15:04.915Z,8.50
2019-03-28T01:17:33.340Z,8.50
2019-03-28T01:20:01.807Z,8.60
2019-03-28T01:22:31.054Z,8.60
2019-03-28T01:24:59.568Z,8.60
2019-03-28T01:27:27.998Z,8.60
2019-03-28T01:29:57.227Z,8.60
2019-03-28T01:32:25.761Z,8.60
2019-03-28T01:34:54.205Z,8.60
2019-03-28T01:37:22.632Z,8.50
2019-03-28T01:39:51.102Z,8.50
2019-03-28T01:42:19.518Z,8.50
2019-03-28T01:44:47.965Z,8.50
2019-03-28T01:47:16.405Z,8.60
2019-03-28T01:49:44.865Z,8.50
2019-03-28T01:52:13.342Z,8.50
2019-03-28T01:54:41.800Z,8.40
2019-03-28T01:57:11.483Z,8.40
2019-03-28T01:59:40.407Z,8.40
2019-03-28T02:02:08.836Z,8.40
2019-03-28T02:04:37.294Z,8.40
2019-03-28T02:07:05.751Z,8.40
2019-03-28T02:09:34.196Z,8.40
2019-03-28T02:12:02.631Z,8.50
2019-03-28T02:14:31.097Z,8.50
2019-03-28T02:16:59.538Z,8.60
2019-03-28T02:19:27.989Z,8.60
2019-03-28T02:21:56.432Z,8.60
2019-03-28T02:24:24.886Z,8.60
2019-03-28T02:26:53.318Z,8.50
2019-03-28T02:29:21.783Z,8.50
2019-03-28T02:31:50.241Z,8.50
2019-03-28T02:34:18.681Z,8.60
2019-03-28T02:36:47.154Z,8.60
2019-03-28T02:39:15.681Z,8.60
2019-03-28T02:41:44.126Z,8.60
2019-03-28T02:44:12.595Z,8.60
2019-03-28T02:46:41.053Z,8.60
2019-03-28T02:49:09.491Z,8.60
2019-03-28T02:51:37.941Z,8.50
2019-03-28T02:54:06.402Z,8.60
2019-03-28T02:56:34.871Z,8.50
2019-03-28T02:59:03.309Z,8.60
2019-03-28T03:01:31.810Z,8.60
2019-03-28T03:04:00.248Z,8.60
2019-03-28T03:06:28.691Z,8.60
2019-03-28T03:08:57.130Z,8.70
2019-03-28T03:11:25.600Z,8.70
2019-03-28T03:13:54.099Z,8.60
2019-03-28T03:16:22.840Z,8.60
2019-03-28T03:18:51.544Z,8.70
2019-03-28T03:21:19.991Z,8.70
2019-03-28T03:23:48.438Z,8.60
2019-03-28T03:26:16.907Z,8.60
2019-03-28T03:28:45.403Z,8.60
2019-03-28T03:31:20.312Z,8.60
2019-03-28T03:33:44.018Z,8.60
2019-03-28T03:36:12.478Z,8.60
2019-03-28T03:38:40.917Z,8.60
2019-03-28T03:41:09.438Z,8.70
2019-03-28T03:43:37.884Z,8.60
2019-03-28T03:46:06.332Z,8.60
2019-03-28T03:48:34.842Z,8.60
2019-03-28T03:51:03.300Z,8.60
2019-03-28T03:53:31.737Z,8.60
2019-03-28T03:56:00.212Z,8.60
2019-03-28T03:58:28.658Z,8.70
2019-03-28T04:00:57.098Z,8.70
2019-03-28T04:03:25.569Z,8.80
2019-03-28T04:05:54.006Z,8.70
2019-03-28T04:08:22.462Z,8.60
2019-03-28T04:10:50.898Z,8.60
2019-03-28T04:13:19.343Z,8.60
2019-03-28T04:15:47.803Z,8.50
2019-03-28T04:18:16.265Z,8.50
2019-03-28T04:20:44.772Z,8.60
2019-03-28T04:23:13.224Z,8.60
2019-03-28T04:25:41.655Z,8.60
2019-03-28T04:28:10.114Z,8.60
2019-03-28T04:30:38.551Z,8.50
2019-03-28T04:33:07.004Z,8.60
2019-03-28T04:35:35.515Z,8.60
2019-03-28T04:38:03.991Z,8.60
2019-03-28T04:40:32.435Z,8.70
2019-03-28T04:43:00.903Z,8.70
2019-03-28T04:45:29.426Z,8.70
2019-03-28T04:47:57.897Z,8.70
2019-03-28T04:50:26.339Z,8.70
2019-03-28T04:52:54.798Z,8.70
2019-03-28T04:55:23.238Z,8.70
2019-03-28T04:57:51.675Z,8.80
2019-03-28T05:00:20.205Z,8.80
2019-03-28T05:02:48.634Z,8.70
2019-03-28T05:05:17.114Z,8.70
2019-03-28T05:07:45.611Z,8.70
2019-03-28T05:10:14.249Z,8.60
2019-03-28T05:12:42.694Z,8.70
2019-03-28T05:15:12.586Z,8.70
2019-03-28T05:17:41.029Z,8.70
2019-03-28T05:20:11.827Z,8.60
2019-03-28T05:22:39.893Z,8.60
2019-03-28T05:25:08.979Z,8.60
2019-03-28T05:27:37.419Z,8.60
2019-03-28T05:30:09.565Z,8.60
2019-03-28T05:32:38.002Z,8.70
2019-03-28T05:35:07.119Z,8.60
2019-03-28T05:37:36.395Z,8.60
2019-03-28T05:40:08.371Z,8.60
2019-03-28T05:42:36.805Z,8.70
2019-03-28T05:45:06.699Z,8.70
2019-03-28T05:47:35.156Z,8.80
2019-03-28T05:50:04.470Z,8.80
2019-03-28T05:52:32.911Z,8.80
2019-03-28T05:55:01.431Z,8.70
2019-03-28T05:57:29.870Z,8.70
2019-03-28T05:59:58.338Z,8.80
2019-03-28T06:02:26.849Z,8.70
2019-03-28T06:04:55.301Z,8.80
2019-03-28T06:07:23.747Z,8.90
2019-03-28T06:09:52.220Z,8.80
2019-03-28T06:12:20.693Z,8.90
2019-03-28T06:14:49.150Z,8.90
2019-03-28T06:17:17.593Z,9.00
2019-03-28T06:19:46.078Z,9.00
2019-03-28T06:22:14.628Z,9.10
2019-03-28T06:24:43.172Z,9.10
2019-03-28T06:27:11.649Z,9.10
2019-03-28T06:29:40.106Z,9.10
2019-03-28T06:32:08.547Z,9.10
2019-03-28T06:34:37.005Z,9.10
2019-03-28T06:37:06.411Z,9.10
2019-03-28T06:39:36.628Z,9.10
2019-03-28T06:42:05.199Z,9.10
2019-03-28T06:44:33.649Z,9.10
2019-03-28T06:47:02.114Z,9.10
2019-03-28T06:49:30.569Z,9.20
2019-03-28T06:51:59.006Z,9.20
2019-03-28T06:54:27.461Z,9.20
2019-03-28T06:56:55.894Z,9.20
2019-03-28T06:59:36.528Z,9.30
2019-03-28T07:01:54.510Z,9.30
2019-03-28T07:04:22.974Z,9.20
2019-03-28T07:06:51.419Z,9.20
2019-03-28T07:09:19.888Z,9.30
2019-03-28T07:11:48.330Z,9.30
2019-03-28T07:14:16.763Z,9.30
2019-03-28T07:16:45.251Z,9.30
2019-03-28T07:19:13.706Z,9.20
2019-03-28T07:21:42.155Z,9.20
2019-03-28T07:24:10.586Z,9.40
2019-03-28T07:26:39.054Z,9.40
2019-03-28T07:29:07.491Z,9.50
2019-03-28T07:31:35.979Z,9.50
2019-03-28T07:34:04.410Z,9.50
2019-03-28T07:36:32.860Z,9.50
2019-03-28T07:39:01.343Z,9.60
2019-03-28T07:41:29.854Z,9.50
2019-03-28T07:43:58.299Z,9.60
2019-03-28T07:46:26.751Z,9.70
2019-03-28T07:48:55.191Z,9.80
2019-03-28T07:51:23.670Z,9.90
2019-03-28T07:53:52.109Z,9.90
2019-03-28T07:56:20.571Z,9.90
2019-03-28T07:58:49.024Z,9.90
2019-03-28T08:01:18.283Z,9.90
2019-03-28T08:03:46.840Z,9.80
2019-03-28T08:06:15.348Z,9.90
2019-03-28T08:08:44.284Z,10.00
2019-03-28T08:11:12.850Z,10.00
2019-03-28T08:13:41.354Z,10.10
2019-03-28T08:16:09.822Z,10.10
2019-03-28T08:18:38.263Z,10.10
2019-03-28T08:21:06.742Z,10.00
2019-03-28T08:23:35.568Z,9.90
2019-03-28T08:26:04.198Z,9.90
2019-03-28T08:28:32.682Z,10.00
2019-03-28T08:31:01.265Z,10.10
2019-03-28T08:33:29.872Z,10.20
2019-03-28T08:35:58.695Z,10.20
2019-03-28T08:38:27.393Z,10.20
2019-03-28T08:40:55.863Z,10.20
2019-03-28T08:43:24.380Z,10.20
2019-03-28T08:45:52.825Z,10.20
2019-03-28T08:48:21.265Z,10.20
2019-03-28T08:50:49.739Z,10.30
2019-03-28T08:53:18.226Z,10.20
2019-03-28T08:55:46.693Z,10.30
2019-03-28T08:58:15.147Z,10.30
2019-03-28T09:00:51.567Z,10.30
2019-03-28T09:03:13.762Z,10.30
2019-03-28T09:05:42.232Z,10.30
2019-03-28T09:08:10.672Z,10.40
2019-03-28T09:10:39.125Z,10.50
2019-03-28T09:13:07.572Z,10.60
2019-03-28T09:15:43.458Z,10.60
2019-03-28T09:18:06.267Z,10.60
2019-03-28T09:20:34.741Z,10.60
2019-03-28T09:23:03.191Z,10.60
2019-03-28T09:25:31.628Z,10.60
2019-03-28T09:28:00.094Z,10.70
2019-03-28T09:30:47.586Z,10.60
2019-03-28T09:33:06.970Z,10.60
2019-03-28T09:35:35.502Z,10.60
2019-03-28T09:38:04.178Z,10.70
2019-03-28T09:40:32.609Z,10.80
2019-03-28T09:43:01.058Z,10.90
2019-03-28T09:45:30.194Z,10.90
2019-03-28T09:47:58.842Z,10.90
2019-03-28T09:50:27.272Z,11.00
2019-03-28T09:52:55.731Z,11.00
2019-03-28T09:55:24.171Z,11.10
2019-03-28T09:57:52.625Z,11.00
2019-03-28T10:00:21.204Z,10.80
2019-03-28T10:02:49.650Z,10.70
2019-03-28T10:05:18.081Z,10.60
2019-03-28T10:07:46.622Z,10.50
2019-03-28T10:10:15.244Z,10.50
2019-03-28T10:12:44.217Z,10.70
2019-03-28T10:15:12.950Z,10.80
2019-03-28T10:17:42.538Z,10.70
2019-03-28T10:20:11.570Z,10.90
2019-03-28T10:22:40.029Z,10.80
2019-03-28T10:25:12.299Z,10.80
2019-03-28T10:27:39.108Z,11.10
2019-03-28T10:30:09.407Z,11.40
2019-03-28T10:32:37.870Z,11.50
2019-03-28T10:35:07.087Z,11.60
2019-03-28T10:37:35.719Z,11.40
2019-03-28T10:40:06.796Z,11.20
2019-03-28T10:42:35.392Z,11.20
2019-03-28T10:45:05.570Z,11.20
2019-03-28T10:47:34.023Z,11.30
2019-03-28T10:50:04.194Z,11.40
2019-03-28T10:52:32.652Z,11.30
2019-03-28T10:55:01.086Z,11.20
2019-03-28T10:57:30.498Z,11.10
2019-03-28T10:59:59.769Z,11.00
2019-03-28T11:02:28.946Z,11.00
2019-03-28T11:04:57.632Z,11.10
2019-03-28T11:07:26.095Z,11.10
2019-03-28T11:09:54.543Z,11.00
2019-03-28T11:12:23.062Z,11.00
2019-03-28T11:14:51.503Z,10.90
2019-03-28T11:17:19.959Z,10.90
2019-03-28T11:19:48.401Z,11.00
2019-03-28T11:22:16.860Z,11.10
2019-03-28T11:24:46.521Z,11.20
2019-03-28T11:27:15.151Z,11.20
2019-03-28T11:29:43.677Z,11.10
2019-03-28T11:32:12.125Z,11.10
2019-03-28T11:34:40.897Z,11.20
2019-03-28T11:37:14.918Z,11.40
2019-03-28T11:39:39.749Z,11.60
2019-03-28T11:42:08.363Z,11.70
2019-03-28T11:44:36.858Z,11.70
2019-03-28T11:47:05.292Z,11.60
2019-03-28T11:49:33.749Z,11.50
2019-03-28T11:52:02.185Z,11.20
2019-03-28T11:54:30.637Z,11.10
2019-03-28T11:56:59.078Z,11.10
2019-03-28T11:59:27.525Z,11.20
2019-03-28T12:02:02.082Z,11.10
2019-03-28T12:04:26.159Z,11.10
2019-03-28T12:06:54.594Z,11.10
2019-03-28T12:09:23.074Z,11.10
2019-03-28T12:11:52.933Z,11.10
2019-03-28T12:14:21.644Z,11.10
2019-03-28T12:16:50.099Z,11.10
2019-03-28T12:19:18.632Z,11.00
2019-03-28T12:21:47.117Z,11.00
2019-03-28T12:24:15.577Z,11.10
2019-03-28T12:26:44.018Z,11.10
2019-03-28T12:29:12.492Z,11.20
2019-03-28T12:31:40.967Z,11.20
2019-03-28T12:34:09.418Z,11.20
2019-03-28T12:36:37.859Z,11.20
2019-03-28T12:39:06.883Z,11.20
2019-03-28T12:41:35.322Z,11.20
2019-03-28T12:44:03.757Z,11.10
2019-03-28T12:46:32.200Z,11.10
2019-03-28T12:49:00.658Z,11.00
2019-03-28T12:51:29.091Z,11.00
2019-03-28T12:53:57.548Z,11.00
2019-03-28T12:56:26.463Z,10.90
2019-03-28T12:58:55.023Z,10.90
2019-03-28T13:01:24.502Z,10.90
2019-03-28T13:03:53.105Z,10.80
2019-03-28T13:06:21.554Z,10.80
2019-03-28T13:08:50.006Z,10.80
2019-03-28T13:11:19.564Z,10.70
2019-03-28T13:13:48.195Z,10.70
2019-03-28T13:16:16.631Z,10.70
2019-03-28T13:18:45.077Z,10.90
2019-03-28T13:21:14.168Z,11.00
2019-03-28T13:23:42.859Z,11.10
2019-03-28T13:26:11.298Z,11.20
2019-03-28T13:28:39.770Z,11.30
2019-03-28T13:31:08.225Z,11.40
2019-03-28T13:33:36.730Z,11.40
2019-03-28T13:36:05.180Z,11.50
2019-03-28T13:38:33.679Z,11.40
2019-03-28T13:41:02.168Z,11.40
2019-03-28T13:43:30.759Z,11.30
2019-03-28T13:45:59.407Z,11.10
2019-03-28T13:48:27.849Z,10.80
2019-03-28T13:50:56.317Z,10.80
2019-03-28T13:53:38.315Z,10.90
2019-03-28T13:55:55.022Z,11.00
2019-03-28T13:58:23.526Z,11.00
2019-03-28T14:00:54.380Z,11.00
2019-03-28T14:03:22.137Z,11.00
2019-03-28T14:05:50.603Z,11.00
2019-03-28T14:08:19.098Z,11.10
2019-03-28T14:10:47.615Z,11.20
2019-03-28T14:13:16.049Z,11.30
2019-03-28T14:15:44.529Z,11.30
2019-03-28T14:18:12.968Z,11.20
2019-03-28T14:20:41.521Z,11.30
2019-03-28T14:23:10.018Z,11.40
2019-03-28T14:25:38.478Z,11.40
2019-03-28T14:28:06.910Z,11.40
2019-03-28T14:30:35.474Z,11.50
2019-03-28T14:33:11.068Z,11.60
2019-03-28T14:35:34.120Z,11.70
2019-03-28T14:38:02.556Z,11.70
2019-03-28T14:40:31.021Z,11.80
2019-03-28T14:42:59.460Z,11.80
2019-03-28T14:45:27.897Z,11.80
2019-03-28T14:47:56.346Z,11.60
2019-03-28T14:50:35.325Z,11.60
2019-03-28T14:53:04.007Z,11.50
2019-03-28T14:55:33.966Z,11.60
2019-03-28T14:58:03.772Z,11.40
2019-03-28T15:00:47.069Z,11.30
2019-03-28T15:03:25.500Z,11.10
2019-03-28T15:05:46.420Z,11.10
2019-03-28T15:08:14.862Z,11.10
2019-03-28T15:10:43.327Z,11.00
2019-03-28T15:13:11.812Z,10.90
2019-03-28T15:15:40.290Z,10.90
2019-03-28T15:18:08.754Z,10.90
2019-03-28T15:20:37.309Z,11.00
2019-03-28T15:23:05.797Z,11.10
2019-03-28T15:25:34.301Z,11.10
2019-03-28T15:28:02.754Z,11.30
2019-03-28T15:30:31.199Z,11.40
2019-03-28T15:32:59.644Z,11.50
2019-03-28T15:35:28.082Z,11.50
2019-03-28T15:37:56.566Z,11.60
2019-03-28T15:40:25.039Z,11.50
2019-03-28T15:42:53.518Z,11.50
2019-03-28T15:45:21.964Z,11.50
2019-03-28T15:47:52.118Z,11.40
2019-03-28T15:50:20.820Z,11.30
2019-03-28T15:52:49.278Z,11.30
2019-03-28T15:55:17.714Z,11.30
2019-03-28T15:57:46.172Z,11.20
2019-03-28T16:00:15.159Z,11.10
2019-03-28T16:02:43.610Z,11.00
2019-03-28T16:05:12.047Z,10.90
2019-03-28T16:07:40.498Z,10.80
2019-03-28T16:10:10.474Z,10.80
2019-03-28T16:12:38.927Z,10.80
2019-03-28T16:15:08.308Z,10.70
2019-03-28T16:17:36.749Z,10.70
2019-03-28T16:20:06.129Z,10.70
2019-03-28T16:22:34.581Z,10.50
2019-03-28T16:25:03.012Z,10.60
2019-03-28T16:27:31.502Z,10.50
2019-03-28T16:29:59.997Z,10.40
2019-03-28T16:32:28.469Z,10.40
2019-03-28T16:34:56.913Z,10.40
2019-03-28T16:37:25.358Z,10.50
2019-03-28T16:39:53.816Z,10.50
2019-03-28T16:42:22.252Z,10.60
2019-03-28T16:44:50.703Z,10.60
2019-03-28T16:47:19.214Z,10.60
2019-03-28T16:49:47.668Z,10.60
2019-03-28T16:52:16.110Z,10.60
2019-03-28T16:54:44.586Z,10.70
2019-03-28T16:57:13.016Z,10.60
2019-03-28T16:59:41.483Z,10.60
2019-03-28T17:02:09.918Z,10.60
2019-03-28T17:04:38.372Z,10.60
2019-03-28T17:07:07.847Z,10.60
2019-03-28T17:09:39.145Z,10.50
2019-03-28T17:12:07.683Z,10.50
2019-03-28T17:14:36.185Z,10.30
2019-03-28T17:17:05.448Z,10.20
2019-03-28T17:19:33.907Z,10.20
2019-03-28T17:22:02.360Z,10.10
2019-03-28T17:24:30.824Z,10.20
2019-03-28T17:26:59.250Z,10.20
2019-03-28T17:29:27.719Z,10.20
2019-03-28T17:31:56.147Z,10.20
2019-03-28T17:34:34.738Z,10.20
2019-03-28T17:36:54.763Z,10.10
2019-03-28T17:39:23.220Z,10.10
2019-03-28T17:41:51.653Z,10.20
2019-03-28T17:44:20.112Z,10.20
2019-03-28T17:46:48.563Z,10.30
2019-03-28T17:49:17.094Z,10.20
2019-03-28T17:51:45.529Z,10.20
2019-03-28T17:54:13.964Z,10.20
2019-03-28T17:56:42.436Z,10.10
2019-03-28T17:59:10.880Z,10.00
2019-03-28T18:01:39.340Z,9.90
2019-03-28T18:04:07.785Z,10.00
2019-03-28T18:06:36.328Z,10.00
2019-03-28T18:09:06.931Z,9.90
2019-03-28T18:11:35.467Z,9.90
2019-03-28T18:14:04.396Z,9.80
2019-03-28T18:16:33.630Z,9.80
2019-03-28T18:19:02.972Z,9.80
2019-03-28T18:21:31.474Z,9.90
2019-03-28T18:23:59.942Z,10.00
2019-03-28T18:26:28.397Z,10.00
2019-03-28T18:28:56.849Z,10.10
2019-03-28T18:31:25.374Z,10.10
2019-03-28T18:33:53.819Z,10.00
2019-03-28T18:36:22.291Z,10.00
2019-03-28T18:38:52.523Z,10.00
2019-03-28T18:41:20.893Z,9.90
2019-03-28T18:43:49.859Z,9.90
2019-03-28T18:46:18.464Z,9.90
2019-03-28T18:48:46.904Z,10.00
2019-03-28T18:51:15.385Z,10.00
2019-03-28T18:53:43.817Z,9.90
2019-03-28T18:56:12.284Z,10.00
2019-03-28T18:58:40.722Z,10.00
2019-03-28T19:01:09.278Z,10.00
2019-03-28T19:03:37.712Z,10.00
2019-03-28T19:06:06.181Z,10.00
2019-03-28T19:08:34.650Z,10.00
2019-03-28T19:11:03.943Z,10.10
2019-03-28T19:13:32.502Z,10.00
2019-03-28T19:16:01.134Z,10.00
2019-03-28T19:18:29.573Z,10.00
2019-03-28T19:20:58.044Z,10.10
2019-03-28T19:23:26.494Z,10.10
2019-03-28T19:25:54.954Z,10.10
2019-03-28T19:28:29.021Z,10.20
2019-03-28T19:30:53.606Z,10.20
2019-03-28T19:33:22.070Z,10.20
2019-03-28T19:35:51.174Z,10.20
2019-03-28T19:38:19.628Z,10.10
2019-03-28T19:40:48.141Z,10.10
2019-03-28T19:43:20.865Z,10.00
2019-03-28T19:45:46.910Z,10.00
2019-03-28T19:48:15.338Z,10.00
2019-03-28T19:50:43.805Z,10.00
2019-03-28T19:53:12.355Z,10.00
2019-03-28T19:55:40.883Z,9.90
2019-03-28T19:58:09.565Z,9.90
2019-03-28T20:00:38.013Z,9.90
2019-03-28T20:03:06.454Z,9.90
2019-03-28T20:05:46.852Z,9.80
2019-03-28T20:08:15.411Z,9.80
2019-03-28T20:10:35.433Z,9.70
2019-03-28T20:13:05.429Z,9.70
2019-03-28T20:15:34.201Z,9.70
2019-03-28T20:18:02.686Z,9.70
2019-03-28T20:20:31.122Z,9.60
2019-03-28T20:22:59.560Z,9.70
2019-03-28T20:25:27.988Z,9.60
2019-03-28T20:27:56.439Z,9.50
2019-03-28T20:30:25.296Z,9.50
2019-03-28T20:32:53.761Z,9.50
2019-03-28T20:35:22.199Z,9.50
2019-03-28T20:37:50.637Z,9.50
2019-03-28T20:40:19.410Z,9.50
2019-03-28T20:42:47.850Z,9.50
2019-03-28T20:45:16.611Z,9.60
2019-03-28T20:47:45.067Z,9.50
2019-03-28T20:50:14.334Z,9.60
2019-03-28T20:52:42.795Z,9.60
2019-03-28T20:55:11.301Z,9.60
2019-03-28T20:57:40.566Z,9.60
2019-03-28T21:00:09.593Z,9.60
2019-03-28T21:02:38.110Z,9.60
2019-03-28T21:05:07.368Z,9.60
2019-03-28T21:07:35.959Z,9.70
2019-03-28T21:10:05.543Z,9.60
2019-03-28T21:12:33.970Z,9.60
2019-03-28T21:15:02.432Z,9.60
2019-03-28T21:17:32.260Z,9.60
2019-03-28T21:20:01.194Z,9.60
2019-03-28T21:22:29.618Z,9.70
2019-03-28T21:24:58.069Z,9.70
2019-03-28T21:27:26.538Z,9.70
2019-03-28T21:29:55.002Z,9.60
2019-03-28T21:32:23.428Z,9.50
2019-03-28T21:34:51.878Z,9.50
2019-03-28T21:37:20.348Z,9.50
2019-03-28T21:39:48.801Z,9.40
2019-03-28T21:42:17.304Z,9.40
2019-03-28T21:44:45.760Z,9.40
2019-03-28T21:47:14.190Z,9.30
2019-03-28T21:49:42.646Z,9.30
2019-03-28T21:52:11.091Z,9.40
2019-03-28T21:54:39.554Z,9.30
2019-03-28T21:57:08.058Z,9.30
2019-03-28T21:59:36.624Z,9.30
2019-03-28T22:02:05.119Z,9.30
2019-03-28T22:04:34.375Z,9.30
2019-03-28T22:07:03.364Z,9.30
2019-03-28T22:09:31.827Z,9.30
2019-03-28T22:12:00.861Z,9.30
2019-03-28T22:14:29.683Z,9.30
2019-03-28T22:16:58.134Z,9.30
2019-03-28T22:19:26.595Z,9.30
2019-03-28T22:21:55.050Z,9.20
2019-03-28T22:24:23.596Z,9.30
2019-03-28T22:26:52.092Z,9.20
2019-03-28T22:29:20.891Z,9.30
2019-03-28T22:31:49.556Z,9.30
2019-03-28T22:34:18.057Z,9.40
2019-03-28T22:36:56.538Z,9.30
2019-03-28T22:39:16.678Z,9.40
2019-03-28T22:41:45.114Z,9.40
2019-03-28T22:44:14.376Z,9.30
2019-03-28T22:46:42.915Z,9.40
2019-03-28T22:49:11.378Z,9.40
2019-03-28T22:51:39.806Z,9.40
2019-03-28T22:54:08.284Z,9.40
2019-03-28T22:56:36.733Z,9.40
2019-03-28T22:59:05.200Z,9.40
2019-03-28T23:01:33.721Z,9.50
2019-03-28T23:04:02.177Z,9.40
2019-03-28T23:06:30.636Z,9.40
2019-03-28T23:08:59.112Z,9.50
2019-03-28T23:11:27.640Z,9.60
2019-03-28T23:13:56.084Z,9.40
2019-03-28T23:16:24.550Z,9.40
2019-03-28T23:18:53.050Z,9.30
2019-03-28T23:21:21.501Z,9.30
2019-03-28T23:23:49.941Z,9.30
2019-03-28T23:26:18.407Z,9.40
2019-03-28T23:28:46.859Z,9.50
2019-03-28T23:31:15.301Z,9.50
2019-03-28T23:33:43.740Z,9.50
2019-03-28T23:36:12.198Z,9.40
2019-03-28T23:38:40.645Z,9.50
2019-03-28T23:41:09.150Z,9.50
2019-03-28T23:43:37.587Z,9.50
2019-03-28T23:46:06.038Z,9.40
2019-03-28T23:48:34.545Z,9.40
2019-03-28T23:51:03.006Z,9.40
2019-03-28T23:53:31.445Z,9.40
2019-03-28T23:55:59.902Z,9.50
2019-03-28T23:58:28.345Z,9.50
